createdAt,value
2023-04-18T00:01:22.181Z,7.03
2023-04-18T00:03:52.183Z,10.07
2023-04-18T00:06:22.800Z,7.38
2023-04-18T00:08:51.774Z,6.68
2023-04-18T00:11:20.266Z,7.88
2023-04-18T00:13:48.884Z,8.90
2023-04-18T00:16:17.605Z,6.35
2023-04-18T00:18:48.899Z,4.07
2023-04-18T00:21:18.082Z,6.18
2023-04-18T00:23:47.040Z,8.50
2023-04-18T00:26:15.660Z,9.25
2023-04-18T00:28:46.048Z,6.82
2023-04-18T00:31:14.788Z,62.70
2023-04-18T00:33:43.741Z,5.82
2023-04-18T00:36:12.259Z,9.55
2023-04-18T00:38:43.038Z,7.72
2023-04-18T00:41:11.757Z,22.27
2023-04-18T00:43:40.431Z,13.23
2023-04-18T00:46:09.726Z,8.93
2023-04-18T00:48:40.001Z,14.95
2023-04-18T00:51:09.529Z,9.30
2023-04-18T00:53:38.473Z,24.33
2023-04-18T00:56:08.247Z,14.30
2023-04-18T00:58:41.419Z,30.42
2023-04-18T01:01:10.618Z,13.50
2023-04-18T01:03:40.138Z,16.13
2023-04-18T01:06:09.057Z,15.80
2023-04-18T01:08:38.069Z,11.02
2023-04-18T01:11:07.029Z,9.52
2023-04-18T01:13:35.478Z,14.60
2023-04-18T01:16:05.418Z,19.10
2023-04-18T01:18:35.791Z,14.35
2023-04-18T01:21:06.897Z,18.52
2023-04-18T01:23:35.598Z,9.57
2023-04-18T01:26:04.281Z,13.45
2023-04-18T01:28:38.271Z,11.32
2023-04-18T01:31:09.153Z,12.48
2023-04-18T01:33:38.613Z,8.10
2023-04-18T01:36:07.438Z,13.15
2023-04-18T01:38:36.164Z,12.57
2023-04-18T01:41:04.781Z,10.80
2023-04-18T01:43:33.570Z,16.08
2023-04-18T01:46:04.820Z,12.50
2023-04-18T01:48:34.101Z,15.70
2023-04-18T01:51:02.949Z,9.85
2023-04-18T01:53:33.238Z,13.10
2023-04-18T01:56:02.070Z,18.20
2023-04-18T01:58:30.742Z,9.13
2023-04-18T02:00:59.373Z,24.58
2023-04-18T02:03:28.333Z,20.15
2023-04-18T02:05:57.165Z,8.77
2023-04-18T02:08:25.905Z,10.68
2023-04-18T02:10:54.661Z,12.60
2023-04-18T02:13:23.242Z,11.07
2023-04-18T02:15:55.528Z,12.75
2023-04-18T02:18:26.233Z,22.45
2023-04-18T02:20:55.094Z,13.68
2023-04-18T02:23:23.612Z,16.60
2023-04-18T02:25:57.437Z,10.35
2023-04-18T02:28:26.257Z,6.88
2023-04-18T02:30:56.552Z,12.07
2023-04-18T02:33:25.163Z,7.28
2023-04-18T02:35:54.336Z,10.70
2023-04-18T02:38:23.011Z,5.68
2023-04-18T02:40:53.713Z,5.10
2023-04-18T02:43:22.198Z,7.80
2023-04-18T02:45:50.978Z,8.77
2023-04-18T02:48:19.620Z,12.90
2023-04-18T02:50:48.342Z,11.77
2023-04-18T02:53:17.884Z,14.00
2023-04-18T02:55:56.835Z,8.98
2023-04-18T02:58:35.633Z,12.32
2023-04-18T03:01:24.981Z,14.77
2023-04-18T03:04:03.925Z,12.25
2023-04-18T03:06:43.261Z,10.45
2023-04-18T03:09:12.217Z,8.82
2023-04-18T03:11:46.171Z,10.73
2023-04-18T03:14:15.849Z,5.82
2023-04-18T03:16:53.069Z,8.75
2023-04-18T03:19:27.575Z,7.45
2023-04-18T03:21:59.882Z,9.10
2023-04-18T03:24:29.083Z,12.88
2023-04-18T03:27:01.528Z,8.88
2023-04-18T03:29:30.223Z,12.60
2023-04-18T03:31:59.225Z,7.57
2023-04-18T03:34:28.143Z,8.18
2023-04-18T03:36:57.229Z,7.75
2023-04-18T03:39:27.045Z,9.25
2023-04-18T03:41:55.903Z,6.88
2023-04-18T03:44:24.651Z,7.80
2023-04-18T03:46:53.281Z,4.95
2023-04-18T03:49:22.132Z,6.07
2023-04-18T03:51:50.969Z,6.07
2023-04-18T03:54:20.219Z,7.57
2023-04-18T03:56:50.755Z,8.27
2023-04-18T03:59:19.529Z,8.52
2023-04-18T04:01:51.258Z,15.57
2023-04-18T04:04:20.719Z,7.75
2023-04-18T04:06:49.481Z,9.18
2023-04-18T04:09:18.315Z,8.45
2023-04-18T04:11:47.025Z,9.82
2023-04-18T04:14:16.904Z,16.73
2023-04-18T04:16:47.691Z,8.13
2023-04-18T04:19:18.597Z,20.13
2023-04-18T04:21:57.825Z,9.30
2023-04-18T04:24:26.478Z,6.95
2023-04-18T04:26:57.025Z,8.10
2023-04-18T04:29:29.693Z,12.30
2023-04-18T04:32:02.484Z,5.72
2023-04-18T04:34:38.558Z,6.20
2023-04-18T04:37:08.905Z,14.15
2023-04-18T04:39:46.902Z,15.00
2023-04-18T04:42:54.736Z,23.30
2023-04-18T04:45:30.599Z,8.00
2023-04-18T04:47:59.900Z,15.20
2023-04-18T04:50:28.774Z,11.50
2023-04-18T04:52:57.597Z,15.88
2023-04-18T04:55:26.364Z,13.60
2023-04-18T04:57:56.622Z,6.97
2023-04-18T05:00:34.583Z,9.57
2023-04-18T05:03:03.530Z,17.10
2023-04-18T05:05:32.468Z,21.83
2023-04-18T05:08:01.806Z,26.27
2023-04-18T05:10:31.330Z,11.95
2023-04-18T05:12:59.942Z,15.23
2023-04-18T05:15:28.659Z,14.55
2023-04-18T05:17:57.333Z,12.32
2023-04-18T05:20:26.088Z,8.00
2023-04-18T05:22:54.800Z,10.70
2023-04-18T05:25:23.440Z,10.40
2023-04-18T05:27:52.588Z,9.02
2023-04-18T05:30:21.394Z,12.02
2023-04-18T05:32:50.307Z,5.05
2023-04-18T05:35:19.174Z,12.63
2023-04-18T05:37:48.241Z,7.22
2023-04-18T05:40:17.482Z,8.70
2023-04-18T05:42:46.103Z,6.88
2023-04-18T05:45:15.285Z,14.25
2023-04-18T05:47:43.930Z,8.25
2023-04-18T05:50:13.166Z,12.70
2023-04-18T05:52:41.866Z,10.70
2023-04-18T05:55:10.904Z,11.68
2023-04-18T05:57:39.812Z,9.52
2023-04-18T06:00:12.033Z,12.65
2023-04-18T06:02:43.687Z,10.63
2023-04-18T06:05:14.063Z,4.63
2023-04-18T06:07:43.431Z,23.45
2023-04-18T06:10:14.034Z,4.97
2023-04-18T06:12:43.277Z,4.00
2023-04-18T06:15:12.611Z,5.15
2023-04-18T06:17:41.691Z,5.35
2023-04-18T06:20:11.322Z,9.20
2023-04-18T06:22:40.062Z,8.07
2023-04-18T06:25:11.973Z,7.68
2023-04-18T06:27:41.257Z,5.47
2023-04-18T06:30:11.605Z,5.60
2023-04-18T06:32:40.463Z,6.65
2023-04-18T06:35:09.453Z,4.88
2023-04-18T06:37:38.307Z,8.52
2023-04-18T06:40:07.457Z,4.78
2023-04-18T06:42:36.319Z,10.52
2023-04-18T06:45:06.929Z,8.60
2023-04-18T06:47:35.664Z,13.48
2023-04-18T06:50:04.799Z,11.23
2023-04-18T06:52:33.454Z,14.45
2023-04-18T06:55:02.218Z,9.75
2023-04-18T06:57:30.882Z,19.50
2023-04-18T06:59:59.594Z,22.98
2023-04-18T07:02:28.137Z,38.13
2023-04-18T07:04:57.071Z,7.35
2023-04-18T07:07:27.080Z,22.40
2023-04-18T07:09:55.955Z,6.93
2023-04-18T07:12:24.636Z,9.40
2023-04-18T07:14:53.764Z,9.32
2023-04-18T07:17:22.300Z,30.25
2023-04-18T07:19:51.021Z,9.93
2023-04-18T07:22:19.743Z,41.97
2023-04-18T07:24:48.363Z,19.95
2023-04-18T07:27:17.077Z,10.00
2023-04-18T07:29:47.951Z,13.98
2023-04-18T07:32:16.641Z,17.05
2023-04-18T07:34:47.789Z,17.05
2023-04-18T07:37:18.272Z,6.90
2023-04-18T07:39:46.961Z,6.72
2023-04-18T07:42:15.633Z,16.90
2023-04-18T07:44:48.223Z,7.60
2023-04-18T07:47:17.114Z,8.07
2023-04-18T07:49:45.742Z,9.50
2023-04-18T07:52:14.269Z,9.23
2023-04-18T07:54:43.076Z,11.55
2023-04-18T07:57:11.853Z,7.57
2023-04-18T07:59:40.664Z,6.63
2023-04-18T08:02:09.297Z,6.60
2023-04-18T08:04:38.059Z,6.70
2023-04-18T08:07:07.002Z,6.43
2023-04-18T08:09:35.734Z,7.60
2023-04-18T08:12:04.428Z,13.73
2023-04-18T08:14:33.419Z,8.15
2023-04-18T08:17:02.201Z,10.88
2023-04-18T08:19:30.789Z,8.30
2023-04-18T08:22:11.672Z,5.82
2023-04-18T08:24:41.675Z,10.43
2023-04-18T08:27:15.179Z,16.13
2023-04-18T08:29:43.928Z,13.05
2023-04-18T08:32:12.495Z,12.80
2023-04-18T08:34:41.311Z,7.35
2023-04-18T08:37:10.808Z,16.05
2023-04-18T08:39:39.564Z,11.73
2023-04-18T08:42:11.150Z,26.48
2023-04-18T08:44:40.002Z,16.75
2023-04-18T08:47:10.535Z,24.88
2023-04-18T08:49:40.799Z,32.63
2023-04-18T08:52:17.906Z,22.60
2023-04-18T08:54:47.854Z,14.82
2023-04-18T08:57:17.604Z,23.75
2023-04-18T08:59:48.944Z,71.85
2023-04-18T09:02:20.108Z,27.30
2023-04-18T09:05:00.906Z,12.23
2023-04-18T09:07:30.680Z,36.10
2023-04-18T09:09:59.410Z,26.30
2023-04-18T09:12:33.169Z,47.47
2023-04-18T09:15:16.321Z,21.27
2023-04-18T09:17:50.188Z,17.77
2023-04-18T09:20:42.880Z,14.80
2023-04-18T09:23:15.303Z,7.53
2023-04-18T09:25:48.797Z,20.75
2023-04-18T09:28:29.858Z,12.77
2023-04-18T09:31:15.299Z,10.75
2023-04-18T09:33:57.521Z,6.82
2023-04-18T09:36:28.263Z,8.88
2023-04-18T09:38:57.524Z,9.75
2023-04-18T09:41:26.131Z,6.93
2023-04-18T09:44:14.864Z,12.18
2023-04-18T09:46:47.218Z,8.65
2023-04-18T09:49:17.409Z,11.27
2023-04-18T09:51:47.008Z,9.23
2023-04-18T09:54:20.605Z,8.75
2023-04-18T09:56:51.549Z,6.65
2023-04-18T09:59:35.156Z,11.02
2023-04-18T10:02:08.683Z,9.40
2023-04-18T10:04:38.171Z,7.15
2023-04-18T10:07:09.767Z,10.32
2023-04-18T10:09:40.385Z,11.13
2023-04-18T10:12:13.397Z,4.82
2023-04-18T10:14:43.929Z,8.00
2023-04-18T10:17:15.129Z,4.43
2023-04-18T10:19:46.711Z,8.20
2023-04-18T10:22:15.429Z,6.60
2023-04-18T10:24:50.724Z,10.20
2023-04-18T10:27:40.471Z,7.78
2023-04-18T10:30:10.147Z,9.35
2023-04-18T10:32:40.456Z,9.23
2023-04-18T10:35:09.629Z,5.68
2023-04-18T10:38:00.632Z,6.38
2023-04-18T10:40:36.778Z,7.38
2023-04-18T10:43:07.468Z,6.35
2023-04-18T10:45:37.253Z,9.75
2023-04-18T10:48:26.040Z,8.70
2023-04-18T10:51:17.544Z,21.02
2023-04-18T10:53:59.876Z,17.58
2023-04-18T10:56:29.771Z,24.58
2023-04-18T10:59:04.069Z,50.20
2023-04-18T11:01:35.441Z,17.83
2023-04-18T11:04:14.380Z,22.48
2023-04-18T11:06:56.811Z,15.00
2023-04-18T11:09:26.538Z,37.95
2023-04-18T11:12:05.849Z,31.63
2023-04-18T11:14:45.068Z,15.77
2023-04-18T11:17:19.763Z,14.10
2023-04-18T11:20:02.397Z,15.77
2023-04-18T11:22:31.833Z,12.90
2023-04-18T11:25:09.369Z,20.33
2023-04-18T11:27:38.370Z,30.73
2023-04-18T11:30:07.990Z,13.75
2023-04-18T11:32:37.201Z,22.00
2023-04-18T11:35:06.410Z,12.90
2023-04-18T11:37:38.369Z,22.98
2023-04-18T11:40:09.668Z,16.67
2023-04-18T11:42:40.247Z,23.77
2023-04-18T11:45:14.349Z,29.13
2023-04-18T11:47:44.285Z,17.42
2023-04-18T11:50:14.577Z,11.25
2023-04-18T11:52:43.482Z,18.83
2023-04-18T11:55:27.864Z,20.85
2023-04-18T11:58:02.252Z,15.18
2023-04-18T12:00:39.272Z,15.45
2023-04-18T12:03:19.512Z,13.95
2023-04-18T12:05:48.721Z,12.55
2023-04-18T12:08:21.827Z,22.92
2023-04-18T12:10:52.433Z,20.58
2023-04-18T12:13:32.827Z,18.80
2023-04-18T12:16:03.568Z,16.15
2023-04-18T12:18:33.116Z,16.27
2023-04-18T12:21:06.570Z,18.23
2023-04-18T12:23:37.827Z,13.18
2023-04-18T12:26:08.753Z,12.45
2023-04-18T12:28:37.327Z,15.93
2023-04-18T12:31:09.752Z,12.90
2023-04-18T12:33:38.562Z,15.68
2023-04-18T12:36:09.305Z,13.90
2023-04-18T12:38:40.647Z,12.85
2023-04-18T12:41:09.705Z,11.55
2023-04-18T12:43:39.209Z,11.95
2023-04-18T12:46:07.989Z,13.15
2023-04-18T12:48:36.724Z,15.07
2023-04-18T12:51:05.598Z,17.88
2023-04-18T12:53:34.468Z,15.07
2023-04-18T12:56:06.223Z,15.32
2023-04-18T12:58:37.765Z,23.40
2023-04-18T13:01:07.440Z,16.05
2023-04-18T13:03:37.920Z,9.30
2023-04-18T13:06:07.434Z,12.02
2023-04-18T13:08:38.226Z,15.10
2023-04-18T13:11:07.546Z,15.10
2023-04-18T13:13:37.156Z,20.08
2023-04-18T13:16:06.613Z,7.65
2023-04-18T13:18:35.772Z,7.40
2023-04-18T13:21:04.636Z,15.30
2023-04-18T13:23:33.474Z,12.77
2023-04-18T13:26:02.735Z,9.93
2023-04-18T13:28:31.432Z,15.85
2023-04-18T13:31:00.516Z,10.63
2023-04-18T13:33:29.101Z,11.77
2023-04-18T13:35:57.596Z,21.13
2023-04-18T13:38:29.126Z,12.68
2023-04-18T13:41:08.896Z,11.93
2023-04-18T13:43:40.008Z,11.82
2023-04-18T13:46:08.739Z,13.73
2023-04-18T13:48:37.629Z,14.95
2023-04-18T13:51:06.598Z,17.70
2023-04-18T13:53:35.338Z,24.85
2023-04-18T13:56:04.192Z,29.88
2023-04-18T13:58:33.297Z,28.58
2023-04-18T14:01:02.554Z,25.77
2023-04-18T14:03:35.389Z,27.65
2023-04-18T14:06:08.638Z,38.97
2023-04-18T14:08:40.778Z,36.15
2023-04-18T14:11:09.698Z,34.80
2023-04-18T14:13:38.594Z,46.85
2023-04-18T14:16:08.100Z,34.03
2023-04-18T14:18:40.277Z,32.70
2023-04-18T14:21:08.890Z,40.38
2023-04-18T14:23:37.684Z,30.92
2023-04-18T14:26:06.709Z,33.08
2023-04-18T14:28:35.455Z,38.22
2023-04-18T14:31:07.190Z,23.25
2023-04-18T14:33:36.446Z,28.05
2023-04-18T14:36:05.553Z,26.90
2023-04-18T14:38:34.648Z,40.97
2023-04-18T14:41:06.249Z,53.30
2023-04-18T14:43:35.035Z,48.17
2023-04-18T14:46:09.106Z,43.17
2023-04-18T14:48:50.891Z,41.28
2023-04-18T14:51:27.285Z,50.95
2023-04-18T14:54:04.599Z,54.33
2023-04-18T14:56:48.646Z,46.10
2023-04-18T14:59:32.255Z,43.22
2023-04-18T15:02:12.071Z,47.92
2023-04-18T15:04:50.954Z,38.65
2023-04-18T15:07:32.954Z,34.03
2023-04-18T15:10:09.906Z,38.30
2023-04-18T15:12:47.247Z,44.10
2023-04-18T15:15:26.733Z,38.00
2023-04-18T15:18:07.132Z,41.67
2023-04-18T15:20:51.947Z,48.95
2023-04-18T15:23:32.694Z,79.93
2023-04-18T15:26:11.737Z,79.63
2023-04-18T15:28:48.966Z,45.90
2023-04-18T15:31:18.571Z,48.50
2023-04-18T15:33:50.188Z,57.13
2023-04-18T15:36:18.962Z,58.25
2023-04-18T15:38:48.606Z,69.03
2023-04-18T15:41:17.257Z,78.28
2023-04-18T15:43:46.511Z,72.55
2023-04-18T15:46:15.450Z,61.85
2023-04-18T15:48:44.711Z,69.75
2023-04-18T15:51:13.813Z,65.53
2023-04-18T15:53:42.520Z,92.00
2023-04-18T15:56:11.359Z,122.25
2023-04-18T15:58:40.352Z,190.80
2023-04-18T16:01:10.298Z,203.80
2023-04-18T16:03:39.352Z,242.82
2023-04-18T16:06:10.854Z,228.18
2023-04-18T16:08:39.760Z,154.10
2023-04-18T16:11:09.752Z,120.85
2023-04-18T16:13:38.836Z,91.32
2023-04-18T16:16:08.592Z,86.55
2023-04-18T16:18:37.610Z,90.53
2023-04-18T16:21:06.473Z,87.80
2023-04-18T16:23:35.734Z,90.43
2023-04-18T16:26:04.562Z,83.45
2023-04-18T16:28:38.317Z,92.95
2023-04-18T16:31:09.868Z,88.10
2023-04-18T16:33:39.293Z,71.72
2023-04-18T16:36:08.692Z,56.92
2023-04-18T16:38:37.720Z,71.30
2023-04-18T16:41:06.883Z,79.60
2023-04-18T16:43:38.621Z,79.55
2023-04-18T16:46:08.408Z,71.50
2023-04-18T16:48:39.447Z,60.22
2023-04-18T16:51:08.277Z,54.45
2023-04-18T16:53:37.145Z,63.22
2023-04-18T16:56:06.369Z,63.80
2023-04-18T16:58:35.152Z,72.05
2023-04-18T17:01:03.726Z,53.47
2023-04-18T17:03:32.664Z,51.78
2023-04-18T17:06:02.469Z,53.22
2023-04-18T17:08:34.765Z,53.67
2023-04-18T17:11:04.062Z,54.90
2023-04-18T17:13:33.032Z,57.75
2023-04-18T17:16:01.924Z,51.17
2023-04-18T17:18:30.732Z,53.78
2023-04-18T17:20:59.354Z,54.92
2023-04-18T17:23:28.135Z,49.30
2023-04-18T17:25:57.040Z,53.85
2023-04-18T17:28:25.945Z,57.92
2023-04-18T17:30:54.814Z,58.42
2023-04-18T17:33:23.516Z,105.38
2023-04-18T17:35:52.655Z,71.55
2023-04-18T17:38:21.198Z,120.07
2023-04-18T17:40:49.990Z,100.47
2023-04-18T17:43:18.633Z,116.97
2023-04-18T17:45:47.196Z,165.00
2023-04-18T17:48:17.224Z,494.00
2023-04-18T17:50:46.411Z,289.05
2023-04-18T17:53:15.350Z,97.03
2023-04-18T17:55:45.997Z,117.13
2023-04-18T17:58:17.169Z,100.05
2023-04-18T18:00:46.425Z,89.28
2023-04-18T18:03:16.629Z,79.03
2023-04-18T18:05:50.234Z,74.30
2023-04-18T18:08:18.742Z,56.03
2023-04-18T18:10:48.589Z,46.88
2023-04-18T18:13:17.372Z,48.92
2023-04-18T18:15:46.627Z,56.35
2023-04-18T18:18:30.601Z,54.45
2023-04-18T18:20:59.564Z,74.40
2023-04-18T18:23:28.789Z,58.28
2023-04-18T18:25:57.467Z,76.13
2023-04-18T18:28:26.408Z,98.82
2023-04-18T18:30:55.166Z,68.72
2023-04-18T18:33:24.012Z,100.75
2023-04-18T18:35:55.338Z,89.20
2023-04-18T18:38:27.997Z,87.15
2023-04-18T18:40:56.895Z,123.40
2023-04-18T18:43:27.289Z,115.55
2023-04-18T18:45:56.121Z,94.35
2023-04-18T18:48:25.528Z,152.07
2023-04-18T18:50:55.264Z,84.53
2023-04-18T18:53:24.028Z,105.53
2023-04-18T18:55:52.746Z,121.53
2023-04-18T18:58:22.327Z,136.38
2023-04-18T19:00:51.793Z,101.72
2023-04-18T19:03:22.030Z,104.38
2023-04-18T19:05:50.607Z,102.55
2023-04-18T19:08:19.091Z,97.72
2023-04-18T19:10:47.828Z,126.60
2023-04-18T19:13:16.450Z,99.05
2023-04-18T19:15:45.255Z,140.10
2023-04-18T19:18:14.174Z,149.20
2023-04-18T19:20:43.235Z,114.63
2023-04-18T19:23:12.031Z,183.65
2023-04-18T19:25:40.675Z,124.22
2023-04-18T19:28:09.320Z,117.47
2023-04-18T19:30:38.714Z,97.25
2023-04-18T19:33:08.203Z,118.80
2023-04-18T19:35:38.025Z,89.80
2023-04-18T19:38:06.791Z,105.05
2023-04-18T19:40:35.572Z,95.95
2023-04-18T19:43:04.079Z,79.97
2023-04-18T19:45:32.956Z,79.28
2023-04-18T19:48:01.622Z,185.15
2023-04-18T19:50:30.243Z,99.05
2023-04-18T19:52:58.699Z,179.68
2023-04-18T19:55:27.816Z,210.43
2023-04-18T19:57:57.424Z,148.20
2023-04-18T20:00:26.579Z,84.25
2023-04-18T20:02:55.417Z,89.82
2023-04-18T20:05:24.865Z,88.53
2023-04-18T20:07:53.895Z,76.78
2023-04-18T20:10:25.635Z,73.97
2023-04-18T20:12:54.278Z,73.47
2023-04-18T20:15:23.216Z,79.50
2023-04-18T20:17:51.947Z,80.00
2023-04-18T20:20:20.661Z,82.13
2023-04-18T20:22:50.077Z,69.95
2023-04-18T20:25:18.812Z,93.72
2023-04-18T20:27:47.511Z,113.68
2023-04-18T20:30:16.993Z,90.60
2023-04-18T20:32:45.696Z,81.53
2023-04-18T20:35:14.339Z,64.60
2023-04-18T20:37:43.248Z,51.35
2023-04-18T20:40:12.412Z,143.43
2023-04-18T20:42:41.109Z,126.18
2023-04-18T20:45:14.553Z,263.15
2023-04-18T20:47:44.130Z,183.15
2023-04-18T20:50:14.856Z,57.53
2023-04-18T20:52:43.688Z,58.15
2023-04-18T20:55:12.796Z,52.58
2023-04-18T20:57:41.720Z,49.03
2023-04-18T21:00:11.354Z,42.40
2023-04-18T21:02:40.525Z,53.15
2023-04-18T21:05:09.733Z,81.50
2023-04-18T21:07:38.404Z,66.97
2023-04-18T21:10:07.691Z,43.08
2023-04-18T21:12:36.533Z,41.20
2023-04-18T21:15:06.349Z,41.15
2023-04-18T21:17:35.096Z,42.47
2023-04-18T21:20:04.182Z,37.47
2023-04-18T21:22:32.873Z,51.92
2023-04-18T21:25:04.413Z,53.28
2023-04-18T21:27:33.189Z,79.03
2023-04-18T21:30:04.097Z,59.08
2023-04-18T21:32:33.585Z,45.85
2023-04-18T21:35:02.302Z,45.78
2023-04-18T21:37:31.274Z,54.88
2023-04-18T21:39:59.856Z,50.42
2023-04-18T21:42:28.693Z,43.10
2023-04-18T21:44:57.485Z,44.03
2023-04-18T21:47:28.825Z,45.72
2023-04-18T21:49:57.533Z,54.45
2023-04-18T21:52:26.311Z,63.38
2023-04-18T21:54:54.973Z,63.72
2023-04-18T21:57:23.762Z,80.15
2023-04-18T21:59:52.599Z,47.88
2023-04-18T22:02:23.988Z,66.13
2023-04-18T22:04:52.894Z,50.55
2023-04-18T22:07:22.253Z,49.63
2023-04-18T22:09:51.952Z,54.42
2023-04-18T22:12:20.764Z,54.42
2023-04-18T22:14:49.619Z,54.47
2023-04-18T22:17:18.336Z,57.00
2023-04-18T22:19:49.817Z,66.45
2023-04-18T22:22:18.444Z,78.07
2023-04-18T22:24:47.917Z,67.97
2023-04-18T22:27:16.886Z,73.35
2023-04-18T22:29:45.992Z,55.72
2023-04-18T22:32:14.837Z,74.63
2023-04-18T22:34:43.736Z,60.25
2023-04-18T22:37:12.516Z,73.78
2023-04-18T22:39:41.155Z,69.53
2023-04-18T22:42:09.801Z,66.07
2023-04-18T22:44:38.674Z,67.07
2023-04-18T22:47:08.634Z,76.72
2023-04-18T22:49:38.930Z,79.40
2023-04-18T22:52:08.873Z,76.82
2023-04-18T22:54:41.300Z,83.90
2023-04-18T22:57:10.273Z,79.75
2023-04-18T22:59:38.892Z,81.15
2023-04-18T23:02:07.767Z,78.45
2023-04-18T23:04:36.818Z,93.40
2023-04-18T23:07:05.515Z,92.38
2023-04-18T23:09:34.488Z,85.55
2023-04-18T23:12:03.576Z,87.95
2023-04-18T23:14:32.819Z,89.22
2023-04-18T23:17:02.117Z,87.45
2023-04-18T23:19:30.818Z,90.25
2023-04-18T23:22:00.889Z,88.55
2023-04-18T23:24:29.905Z,89.90
2023-04-18T23:27:01.452Z,88.95
2023-04-18T23:29:30.260Z,87.70
2023-04-18T23:31:59.161Z,72.65
2023-04-18T23:34:27.859Z,71.38
2023-04-18T23:36:56.549Z,69.60
2023-04-18T23:39:27.564Z,72.10
2023-04-18T23:41:56.959Z,66.72
2023-04-18T23:44:25.917Z,73.80
2023-04-18T23:46:54.502Z,70.32
2023-04-18T23:49:23.313Z,73.20
2023-04-18T23:51:52.135Z,76.35
2023-04-18T23:54:20.854Z,104.40
2023-04-18T23:56:49.577Z,65.82
2023-04-18T23:59:18.415Z,93.10
